Time;durP1;ratioP1;P1;durP2;ratioP2;P2;SDS_P1;SDS_P2;PMS_P1;PMS_P2;Temp;Humidity;BMP_temperature;BMP_pressure;BME280_temperature;BME280_humidity;BME280_pressure;Samples;Min_cycle;Max_cycle;Signal;HPM_P1;HPM_P2
2023/07/25 00:05:34;;;;;;;7.07;5.57;;;14.10;99.90;;;;;;2609203;54;20150;-78
2023/07/25 00:11:22;;;;;;;8.60;5.90;;;14.10;99.90;;;;;;2610566;54;20363;-78
2023/07/25 00:17:09;;;;;;;7.03;6.17;;;14.20;99.90;;;;;;2610593;54;20677;-78
2023/07/25 00:22:57;;;;;;;11.70;5.93;;;14.10;99.90;;;;;;2608607;54;20118;-78
2023/07/25 00:28:45;;;;;;;11.73;5.50;;;14.10;99.90;;;;;;2609718;54;20158;-78
2023/07/25 00:34:32;;;;;;;11.00;6.70;;;14.10;99.90;;;;;;2611631;39;20533;-78
2023/07/25 00:44:26;;;;;;;7.40;4.90;;;14.10;99.90;;;;;;2608828;54;20395;-78
2023/07/25 00:50:14;;;;;;;5.30;4.80;;;14.10;99.90;;;;;;2609328;54;20427;-78
2023/07/25 00:56:03;;;;;;;8.87;5.10;;;14.10;99.90;;;;;;2609901;39;20554;-78
2023/07/25 01:01:51;;;;;;;10.03;5.93;;;14.20;99.90;;;;;;2609266;54;20395;-79
2023/07/25 01:07:40;;;;;;;8.13;5.43;;;14.20;99.90;;;;;;2609488;54;20245;-78
2023/07/25 01:13:28;;;;;;;10.37;6.03;;;14.10;99.90;;;;;;2613532;54;20423;-79
2023/07/25 01:19:20;;;;;;;8.80;5.73;;;14.10;99.90;;;;;;2615053;39;20514;-78
2023/07/25 01:25:08;;;;;;;7.70;5.60;;;14.10;99.90;;;;;;2613318;54;20431;-78
2023/07/25 01:30:59;;;;;;;9.80;5.67;;;14.10;99.90;;;;;;2610397;54;20917;-78
2023/07/25 01:36:47;;;;;;;9.03;6.00;;;14.10;99.90;;;;;;2610107;54;20406;-78
2023/07/25 01:39:57;;;;;;;9.73;6.13;;;14.10;99.90;;;;;;2610143;54;20404;-78
2023/07/25 01:42:23;;;;;;;7.83;5.40;;;14.10;99.90;;;;;;2608154;39;20736;-78
2023/07/25 01:48:11;;;;;;;8.73;4.93;;;14.00;99.90;;;;;;2609228;54;20130;-78
2023/07/25 01:53:59;;;;;;;15.07;6.60;;;14.10;99.90;;;;;;2609962;54;20238;-79
2023/07/25 01:59:47;;;;;;;8.17;5.03;;;13.90;99.90;;;;;;2609197;54;20243;-78
2023/07/25 02:05:35;;;;;;;12.77;4.87;;;13.90;99.90;;;;;;2610463;54;20387;-78
2023/07/25 02:11:23;;;;;;;5.73;5.10;;;13.80;99.90;;;;;;2608820;54;20645;-79
2023/07/25 02:17:10;;;;;;;8.63;4.60;;;13.70;99.90;;;;;;2608967;54;20168;-79
2023/07/25 02:22:59;;;;;;;6.40;4.80;;;13.50;99.90;;;;;;2608060;54;20149;-78
2023/07/25 02:28:46;;;;;;;10.03;5.10;;;13.50;99.90;;;;;;2609343;54;20420;-79
2023/07/25 02:34:34;;;;;;;11.90;5.47;;;13.40;99.90;;;;;;2610398;54;20126;-79
2023/07/25 02:44:31;;;;;;;13.27;5.57;;;13.10;99.90;;;;;;2609954;54;20432;-74
2023/07/25 02:50:18;;;;;;;8.23;5.20;;;13.00;99.90;;;;;;2610362;54;20724;-75
2023/07/25 02:56:06;;;;;;;12.60;5.87;;;12.90;99.90;;;;;;2609353;54;20162;-75
2023/07/25 03:01:54;;;;;;;8.87;5.93;;;12.80;99.90;;;;;;2609860;54;20134;-74
2023/07/25 03:07:42;;;;;;;9.30;5.60;;;12.60;99.90;;;;;;2609707;54;20723;-75
2023/07/25 03:13:29;;;;;;;12.50;5.80;;;12.60;99.90;;;;;;2614586;39;20561;-75
2023/07/25 03:19:17;;;;;;;10.37;6.33;;;12.60;99.90;;;;;;2614072;54;20256;-75
2023/07/25 03:25:05;;;;;;;11.23;7.90;;;12.40;99.90;;;;;;2614398;54;20137;-75
2023/07/25 03:30:53;;;;;;;13.13;7.00;;;12.50;99.90;;;;;;2609410;54;20503;-75
2023/07/25 03:36:40;;;;;;;8.50;6.37;;;12.40;99.90;;;;;;2609554;54;20134;-75
2023/07/25 03:42:41;;;;;;;9.50;7.27;;;12.30;99.90;;;;;;2605292;54;20162;-74
2023/07/25 03:48:29;;;;;;;6.40;5.77;;;12.30;99.90;;;;;;2607722;54;20202;-74
2023/07/25 03:54:17;;;;;;;15.20;6.77;;;12.40;99.90;;;;;;2608238;54;20138;-75
2023/07/25 04:00:05;;;;;;;14.03;6.03;;;12.50;99.90;;;;;;2608782;54;20541;-75
2023/07/25 04:03:08;;;;;;;10.40;6.30;;;12.50;99.90;;;;;;2608330;54;20403;-74
2023/07/25 04:05:34;;;;;;;12.30;6.30;;;12.50;99.90;;;;;;2607423;39;20778;-74
2023/07/25 04:11:21;;;;;;;7.40;5.73;;;12.60;99.90;;;;;;2609522;54;20272;-73
2023/07/25 04:17:08;;;;;;;6.63;5.67;;;12.60;99.90;;;;;;2608956;54;20135;-74
2023/07/25 04:22:55;;;;;;;15.10;7.27;;;12.70;99.90;;;;;;2611003;54;20247;-74
2023/07/25 04:28:43;;;;;;;8.80;6.60;;;12.70;99.90;;;;;;2610264;54;20134;-73
2023/07/25 04:34:31;;;;;;;10.87;7.33;;;12.70;99.90;;;;;;2610159;54;20234;-73
2023/07/25 04:44:31;;;;;;;9.83;7.20;;;12.70;99.90;;;;;;2611497;54;21064;-73
2023/07/25 04:50:18;;;;;;;10.40;8.50;;;12.60;99.90;;;;;;2610541;54;20403;-74
2023/07/25 04:56:06;;;;;;;10.50;7.63;;;12.60;99.90;;;;;;2609539;54;20129;-74
2023/07/25 05:01:54;;;;;;;12.53;6.93;;;12.80;99.90;;;;;;2610506;54;20182;-72
2023/07/25 05:07:42;;;;;;;19.90;8.53;;;13.00;99.90;;;;;;2609367;54;20130;-73
2023/07/25 05:13:29;;;;;;;10.20;8.73;;;13.30;99.90;;;;;;2610636;54;20126;-74
2023/07/25 05:19:17;;;;;;;16.80;9.03;;;13.70;99.90;;;;;;2610255;54;20156;-75
2023/07/25 05:25:05;;;;;;;12.17;8.97;;;13.80;99.90;;;;;;2611177;54;20130;-74
2023/07/25 05:30:53;;;;;;;19.00;9.83;;;14.30;99.90;;;;;;2609758;54;20391;-73
2023/07/25 05:36:41;;;;;;;15.03;9.07;;;14.50;84.70;;;;;;2610866;54;20252;-75
2023/07/25 05:42:41;;;;;;;14.57;9.40;;;14.80;8.20;;;;;;2610805;54;20235;-73
2023/07/25 05:48:28;;;;;;;19.07;11.43;;;14.60;1.00;;;;;;2610910;54;20133;-75
2023/07/25 05:54:15;;;;;;;16.33;9.50;;;15.40;1.00;;;;;;2613129;54;20140;-74
2023/07/25 06:00:03;;;;;;;13.70;9.70;;;16.40;1.00;;;;;;2611801;54;20148;-75
2023/07/25 06:05:51;;;;;;;12.23;9.50;;;16.10;1.00;;;;;;2611338;54;20472;-73
2023/07/25 06:11:38;;;;;;;10.80;9.40;;;15.70;1.00;;;;;;2612059;54;20158;-73
2023/07/25 06:17:25;;;;;;;10.00;7.53;;;15.50;1.00;;;;;;2613362;39;21098;-74
2023/07/25 06:23:13;;;;;;;6.30;5.70;;;16.10;1.00;;;;;;2614038;54;20219;-73
2023/07/25 06:29:01;;;;;;;8.00;5.20;;;15.70;1.00;;;;;;2606720;54;20187;-74
2023/07/25 06:34:49;;;;;;;7.57;5.17;;;15.40;1.00;;;;;;2611880;54;20144;-74
2023/07/25 06:44:25;;;;;;;6.00;3.73;;;15.20;1.00;;;;;;2610109;54;20370;-73
2023/07/25 06:50:13;;;;;;;7.70;4.70;;;15.80;1.00;;;;;;2612783;54;20545;-74
2023/07/25 06:56:01;;;;;;;9.70;4.47;;;16.90;1.00;;;;;;2612775;46;20712;-76
2023/07/25 07:01:48;;;;;;;7.57;4.90;;;17.50;1.00;;;;;;2612124;54;20150;-73
2023/07/25 07:07:37;;;;;;;7.40;5.63;;;17.90;1.00;;;;;;2611615;54;20130;-74
2023/07/25 07:13:25;;;;;;;5.93;5.10;;;17.60;1.00;;;;;;2612432;54;20378;-76
2023/07/25 07:19:13;;;;;;;7.80;5.40;;;18.10;1.00;;;;;;2612252;54;20171;-74
2023/07/25 07:25:01;;;;;;;8.03;5.60;;;18.50;1.00;;;;;;2612079;54;20240;-75
2023/07/25 07:30:50;;;;;;;8.67;5.97;;;18.80;1.00;;;;;;2611471;54;20398;-75
2023/07/25 07:36:37;;;;;;;6.53;5.80;;;19.90;1.00;;;;;;2613160;54;20427;-76
2023/07/25 07:39:58;;;;;;;6.40;5.90;;;19.80;1.00;;;;;;2611930;54;20400;-75
2023/07/25 07:42:24;;;;;;;6.00;5.60;;;19.50;1.00;;;;;;2611032;54;20147;-76
2023/07/25 07:48:13;;;;;;;6.57;5.97;;;20.90;1.00;;;;;;2610807;47;20212;-75
2023/07/25 07:54:00;;;;;;;5.60;5.20;;;20.00;1.00;;;;;;2612250;39;20837;-75
2023/07/25 07:59:48;;;;;;;6.57;6.17;;;20.20;1.00;;;;;;2610720;46;20255;-75
2023/07/25 08:05:36;;;;;;;7.97;7.37;;;20.30;1.00;;;;;;2609773;54;20126;-75
2023/07/25 08:11:24;;;;;;;7.47;6.77;;;19.70;1.00;;;;;;2609671;54;20142;-75
2023/07/25 08:17:13;;;;;;;8.87;8.07;;;18.40;1.00;;;;;;2610375;54;20929;-76
2023/07/25 08:23:00;;;;;;;7.20;6.70;;;17.20;1.00;;;;;;2611694;54;20374;-75
2023/07/25 08:28:48;;;;;;;7.40;6.90;;;17.30;1.00;;;;;;2611248;54;20164;-75
2023/07/25 08:34:37;;;;;;;9.20;6.80;;;16.80;1.00;;;;;;2612261;54;20131;-75
2023/07/25 08:40:25;;;;;;;7.80;6.30;;;16.90;1.00;;;;;;2611136;46;20449;-74
2023/07/25 08:46:15;;;;;;;6.60;6.20;;;17.00;1.00;;;;;;2610403;54;20154;-74
2023/07/25 08:52:04;;;;;;;7.10;6.60;;;17.60;1.00;;;;;;2609218;54;20427;-75
2023/07/25 08:57:52;;;;;;;8.20;6.90;;;17.40;1.00;;;;;;2607299;54;20443;-75
2023/07/25 09:03:41;;;;;;;6.40;5.90;;;17.70;1.00;;;;;;2608017;54;20497;-75
2023/07/25 09:09:29;;;;;;;6.10;5.70;;;17.70;1.00;;;;;;2609845;54;20387;-75
2023/07/25 09:15:17;;;;;;;5.80;5.50;;;17.70;1.00;;;;;;2612852;54;20126;-76
2023/07/25 09:21:04;;;;;;;9.53;5.93;;;18.90;1.00;;;;;;2613717;54;20243;-74
2023/07/25 09:26:52;;;;;;;7.77;7.00;;;20.40;1.00;;;;;;2611406;54;20165;-75
2023/07/25 09:32:47;;;;;;;7.20;6.50;;;19.50;1.00;;;;;;2609427;54;20946;-74
2023/07/25 09:38:34;;;;;;;7.77;6.97;;;18.20;1.00;;;;;;2612884;39;20777;-75
2023/07/25 09:44:22;;;;;;;6.60;6.20;;;19.10;1.00;;;;;;2612514;54;20303;-74
2023/07/25 09:50:10;;;;;;;9.07;6.67;;;19.40;1.00;;;;;;2613479;54;20243;-75
2023/07/25 09:55:58;;;;;;;7.40;6.87;;;20.10;1.00;;;;;;2613560;39;20756;-75
2023/07/25 10:01:45;;;;;;;7.37;6.60;;;20.60;1.00;;;;;;2612046;54;20122;-76
2023/07/25 10:04:48;;;;;;;8.37;7.00;;;20.80;1.00;;;;;;2612027;39;20708;-74
2023/07/25 10:07:15;;;;;;;8.40;7.60;;;20.50;1.00;;;;;;2613774;39;20570;-75
2023/07/25 10:13:02;;;;;;;9.30;8.60;;;20.20;1.00;;;;;;2613991;54;20363;-75
2023/07/25 10:18:55;;;;;;;9.13;8.47;;;19.50;1.00;;;;;;2611107;54;20171;-76
2023/07/25 10:24:43;;;;;;;8.13;7.57;;;18.40;1.00;;;;;;2609934;54;20412;-75
2023/07/25 10:30:45;;;;;;;5.93;4.37;;;17.30;1.00;;;;;;2609848;54;20149;-74
2023/07/25 10:36:32;;;;;;;7.90;4.20;;;16.80;1.00;;;;;;2609534;54;21163;-76
2023/07/25 10:55:19;;;;;;;6.27;5.67;;;16.80;1.00;;;;;;2612317;54;20391;-76
2023/07/25 11:07:34;;;;;;;7.30;5.10;;;17.60;1.00;;;;;;2613721;54;20391;-74
2023/07/25 11:13:22;;;;;;;7.87;6.17;;;19.20;1.00;;;;;;2613140;54;20387;-75
2023/07/25 11:16:17;;;;;;;6.50;5.90;;;21.10;1.00;;;;;;2613376;54;20974;-75
2023/07/25 11:18:50;;;;;;;7.80;7.10;;;20.10;1.00;;;;;;2613003;54;20139;-75
2023/07/25 11:24:47;;;;;;;9.03;8.13;;;19.00;1.00;;;;;;2612872;54;20395;-75
2023/07/25 11:36:49;;;;;;;7.43;6.80;;;17.60;1.00;;;;;;2613685;54;20383;-75
2023/07/25 11:39:59;;;;;;;8.77;7.97;;;17.50;1.00;;;;;;2612791;54;20411;-75
2023/07/25 11:42:25;;;;;;;11.13;7.60;;;17.40;1.00;;;;;;2613387;54;20234;-75
2023/07/25 11:48:18;;;;;;;9.90;7.70;;;17.60;1.00;;;;;;2611855;54;20127;-75
2023/07/25 11:54:06;;;;;;;7.57;7.00;;;17.50;1.00;;;;;;2613315;54;20436;-75
2023/07/25 11:59:55;;;;;;;7.37;6.80;;;18.00;1.00;;;;;;2612603;54;20966;-75
2023/07/25 12:05:50;;;;;;;7.30;6.70;;;18.30;1.00;;;;;;2612164;54;20961;-75
2023/07/25 12:11:42;;;;;;;8.27;7.50;;;17.80;1.00;;;;;;2613641;54;20347;-74
2023/07/25 12:28:30;;;;;;;9.13;7.93;;;20.40;1.00;;;;;;2612237;54;20367;-75
2023/07/25 12:34:20;;;;;;;8.60;8.00;;;19.50;1.00;;;;;;2614214;54;20396;-75
2023/07/25 12:46:51;;;;;;;8.93;8.33;;;20.30;1.00;;;;;;2614740;54;20440;-75
2023/07/25 12:52:39;;;;;;;8.13;7.73;;;20.20;1.00;;;;;;2614855;46;20609;-75
2023/07/25 12:58:29;;;;;;;8.20;7.80;;;20.60;1.00;;;;;;2614309;54;20239;-75
2023/07/25 13:04:17;;;;;;;8.07;7.77;;;21.40;1.00;;;;;;2614141;39;20890;-74
2023/07/25 13:10:06;;;;;;;8.50;8.00;;;21.00;1.00;;;;;;2613453;54;20154;-75
2023/07/25 13:15:54;;;;;;;8.43;8.03;;;22.90;1.00;;;;;;2612723;46;20399;-75
2023/07/25 13:21:42;;;;;;;8.83;8.43;;;22.90;1.00;;;;;;2613826;54;20192;-75
2023/07/25 13:27:29;;;;;;;10.17;9.50;;;23.10;1.00;;;;;;2612958;54;20130;-74
2023/07/25 13:33:18;;;;;;;8.60;8.00;;;22.60;1.00;;;;;;2613896;54;20180;-75
2023/07/25 13:39:06;;;;;;;9.60;8.63;;;22.60;1.00;;;;;;2613397;54;20504;-74
2023/07/25 13:44:54;;;;;;;8.80;8.30;;;22.80;1.00;;;;;;2613491;54;20399;-75
2023/07/25 13:50:42;;;;;;;9.57;9.07;;;21.20;1.00;;;;;;2613673;31;20661;-75
2023/07/25 13:56:30;;;;;;;9.27;8.67;;;20.40;1.00;;;;;;2614422;54;20940;-75
2023/07/25 14:02:18;;;;;;;8.53;8.13;;;20.60;1.00;;;;;;2613955;54;20133;-75
2023/07/25 14:08:07;;;;;;;8.60;8.00;;;20.20;1.00;;;;;;2614204;54;20683;-75
2023/07/25 14:13:55;;;;;;;8.33;7.93;;;20.20;1.00;;;;;;2614542;54;20419;-74
2023/07/25 14:19:43;;;;;;;9.13;8.53;;;19.00;1.00;;;;;;2614060;54;20508;-75
2023/07/25 14:25:31;;;;;;;8.63;8.00;;;19.50;1.00;;;;;;2614044;46;20138;-75
2023/07/25 14:31:18;;;;;;;8.57;8.07;;;19.60;1.00;;;;;;2614209;54;20231;-75
2023/07/25 14:37:06;;;;;;;9.20;8.50;;;19.50;1.00;;;;;;2613270;54;20166;-74
2023/07/25 14:40:00;;;;;;;8.70;8.30;;;19.60;1.00;;;;;;2611210;54;20396;-75
2023/07/25 14:42:26;;;;;;;9.57;9.13;;;20.00;1.00;;;;;;2614053;54;20143;-75
2023/07/25 14:48:13;;;;;;;8.13;7.73;;;20.40;1.00;;;;;;2612648;54;20676;-75
2023/07/25 14:54:01;;;;;;;8.50;8.00;;;19.70;1.00;;;;;;2612474;54;20126;-74
2023/07/25 14:59:49;;;;;;;8.77;8.37;;;19.40;1.00;;;;;;2614101;54;20171;-75
2023/07/25 15:05:37;;;;;;;9.40;9.00;;;20.00;1.00;;;;;;2614270;54;20251;-75
2023/07/25 15:11:24;;;;;;;8.87;8.50;;;20.80;1.00;;;;;;2614740;54;20166;-67
2023/07/25 15:17:23;;;;;;;9.00;8.50;;;21.80;1.00;;;;;;2614091;39;20543;-67
2023/07/25 15:23:10;;;;;;;8.50;8.10;;;21.40;1.00;;;;;;2614217;54;20382;-68
2023/07/25 15:28:58;;;;;;;8.70;8.40;;;20.90;1.00;;;;;;2613890;54;20161;-67
2023/07/25 15:34:46;;;;;;;8.67;8.00;;;21.30;1.00;;;;;;2614031;54;20134;-68
2023/07/25 15:44:33;;;;;;;8.90;8.30;;;22.00;1.00;;;;;;2614192;54;20387;-67
2023/07/25 15:50:22;;;;;;;8.93;8.43;;;22.10;1.00;;;;;;2614964;54;20375;-67
2023/07/25 15:56:10;;;;;;;9.07;8.63;;;22.50;1.00;;;;;;2615768;39;20503;-68
2023/07/25 16:01:58;;;;;;;8.33;8.03;;;22.40;1.00;;;;;;2614097;54;20471;-67
2023/07/25 16:05:02;;;;;;;9.00;8.40;;;21.50;1.00;;;;;;2615090;39;20777;-68
2023/07/25 16:07:27;;;;;;;8.53;8.10;;;21.20;1.00;;;;;;2613342;39;20552;-69
2023/07/25 16:13:15;;;;;;;9.20;8.80;;;21.70;1.00;;;;;;2614137;54;20154;-67
2023/07/25 16:19:02;;;;;;;10.40;9.67;;;21.90;1.00;;;;;;2609190;54;20134;-68
2023/07/25 16:24:52;;;;;;;10.20;9.63;;;23.90;1.00;;;;;;2614932;54;20151;-69
2023/07/25 16:30:40;;;;;;;8.60;8.20;;;22.20;1.00;;;;;;2613834;54;20384;-69
2023/07/25 16:36:28;;;;;;;9.10;8.70;;;22.50;1.00;;;;;;2614413;54;20139;-67
2023/07/25 16:42:15;;;;;;;9.57;9.10;;;22.20;1.00;;;;;;2612563;54;20170;-68
2023/07/25 16:48:04;;;;;;;9.60;8.90;;;22.20;1.00;;;;;;2615227;39;21041;-68
2023/07/25 16:53:51;;;;;;;10.30;9.80;;;21.80;1.00;;;;;;2615082;54;20134;-67
2023/07/25 16:59:39;;;;;;;11.20;10.80;;;20.20;1.00;;;;;;2611639;54;20114;-69
2023/07/25 17:05:27;;;;;;;9.87;9.47;;;19.50;1.00;;;;;;2614916;54;20162;-68
2023/07/25 17:11:15;;;;;;;9.33;8.93;;;20.10;1.00;;;;;;2612465;46;20162;-69
2023/07/25 17:17:03;;;;;;;11.93;10.90;;;20.20;1.00;;;;;;2614541;54;20161;-68
2023/07/25 17:22:51;;;;;;;9.37;8.97;;;19.90;1.00;;;;;;2614939;39;20534;-69
2023/07/25 17:28:39;;;;;;;10.00;9.37;;;19.60;1.00;;;;;;2613565;54;20379;-69
2023/07/25 17:34:27;;;;;;;9.53;8.90;;;19.30;1.00;;;;;;2613163;39;20763;-68
2023/07/25 17:44:36;;;;;;;9.27;8.60;;;19.20;1.00;;;;;;2614620;54;20428;-69
2023/07/25 17:50:23;;;;;;;9.37;8.97;;;18.90;1.00;;;;;;2614996;54;20421;-68
2023/07/25 17:56:11;;;;;;;10.10;9.60;;;18.70;1.00;;;;;;2614330;54;20926;-67
2023/07/25 18:01:59;;;;;;;9.20;8.80;;;18.70;1.00;;;;;;2613516;54;20171;-68
2023/07/25 18:07:47;;;;;;;10.47;9.70;;;18.70;1.00;;;;;;2614204;54;20133;-68
2023/07/25 18:13:34;;;;;;;10.03;9.63;;;18.50;1.00;;;;;;2614475;54;20229;-68
2023/07/25 18:19:22;;;;;;;9.03;8.50;;;18.30;1.00;;;;;;2614685;39;20525;-67
2023/07/25 18:24:52;;;;;;;8.53;8.13;;;;;;;;;;2614806;54;20154;-69
2023/07/25 18:30:22;;;;;;;8.60;8.30;;;;;;;;;;2614521;54;21074;-67
2023/07/25 18:35:51;;;;;;;9.27;8.87;;;;;;;;;;2615161;54;20612;-68
2023/07/25 18:50:52;;;;;;;8.10;7.80;;;;;;;;;;2612386;54;20395;-70
2023/07/25 18:56:21;;;;;;;8.57;8.07;;;;;;;;;;2610554;54;20425;-69
2023/07/25 19:01:50;;;;;;;8.00;7.60;;;;;;;;;;2612892;54;20390;-69
2023/07/25 19:07:19;;;;;;;8.07;7.77;;;;;;;;;;2612915;54;20396;-68
2023/07/25 19:12:48;;;;;;;9.63;9.13;;;;;;;;;;2612425;54;20414;-69
2023/07/25 19:18:17;;;;;;;10.03;9.43;;;;;;;;;;2612992;54;20358;-69
2023/07/25 19:23:47;;;;;;;8.27;7.87;;;;;;;;;;2613091;54;20381;-69
2023/07/25 19:29:18;;;;;;;8.43;7.97;;;;;;;;;;2610580;54;20406;-69
2023/07/25 19:34:48;;;;;;;7.73;7.43;;;;;;;;;;2613376;54;20427;-68
2023/07/25 19:40:18;;;;;;;9.50;8.53;;;;;;;;;;2614270;54;20396;-68
2023/07/25 19:45:48;;;;;;;8.77;8.17;;;;;;;;;;2613280;54;20516;-70
2023/07/25 19:51:17;;;;;;;8.30;7.80;;;;;;;;;;2613276;54;21196;-69
2023/07/25 19:56:47;;;;;;;8.17;7.77;;;;;;;;;;2612856;54;20366;-68
2023/07/25 20:02:17;;;;;;;7.77;7.13;;;;;;;;;;2613722;39;20794;-69
2023/07/25 20:07:47;;;;;;;7.70;7.20;;;;;;;;;;2613840;39;20767;-68
2023/07/25 20:13:17;;;;;;;7.00;6.50;;;;;;;;;;2611988;54;20398;-69
2023/07/25 20:18:46;;;;;;;7.03;6.53;;;;;;;;;;2614117;54;20450;-68
2023/07/25 20:24:16;;;;;;;7.50;7.10;;;;;;;;;;2613559;54;20379;-69
2023/07/25 20:29:46;;;;;;;7.80;7.30;;;;;;;;;;2612959;54;20363;-69
2023/07/25 20:35:16;;;;;;;7.53;7.10;;;;;;;;;;2614623;54;20358;-69
2023/07/25 20:46:53;;;;;;;6.33;5.93;;;;;;;;;;2614822;54;20400;-70
2023/07/25 20:52:22;;;;;;;6.70;6.30;;;;;;;;;;2614655;54;20379;-71
2023/07/25 20:57:53;;;;;;;6.40;5.93;;;;;;;;;;2614613;54;20387;-68
2023/07/25 21:03:22;;;;;;;6.20;5.90;;;;;;;;;;2613966;54;20439;-71
2023/07/25 21:08:52;;;;;;;7.67;6.90;;;;;;;;;;2614900;54;20523;-70
2023/07/25 21:14:22;;;;;;;6.83;6.33;;;;;;;;;;2614335;54;20359;-68
2023/07/25 21:19:52;;;;;;;5.80;5.40;;;;;;;;;;2613521;54;20451;-69
2023/07/25 21:25:22;;;;;;;6.03;5.63;;;;;;;;;;2614590;54;20394;-69
2023/07/25 21:30:53;;;;;;;5.97;5.57;;;;;;;;;;2612867;54;20382;-69
2023/07/25 21:36:23;;;;;;;5.53;5.23;;;;;;;;;;2614223;54;20390;-69
2023/07/25 21:45:37;;;;;;;7.73;5.10;;;;;;;;;;2613693;39;21100;-71
2023/07/25 21:51:07;;;;;;;5.57;4.90;;;;;;;;;;2615241;54;20431;-69
2023/07/25 21:56:37;;;;;;;5.20;4.80;;;;;;;;;;2612636;54;20362;-70
2023/07/25 22:02:07;;;;;;;5.57;5.07;;;;;;;;;;2614834;39;20737;-69
2023/07/25 22:07:38;;;;;;;5.67;5.27;;;;;;;;;;2612374;54;20386;-69
2023/07/25 22:13:08;;;;;;;5.33;4.70;;;;;;;;;;2614518;54;20937;-69
2023/07/25 22:18:38;;;;;;;5.23;4.83;;;;;;;;;;2614423;54;20387;-70
2023/07/25 22:24:08;;;;;;;5.73;5.33;;;;;;;;;;2614350;54;20404;-70
2023/07/25 22:29:37;;;;;;;5.20;4.70;;;;;;;;;;2614565;54;20394;-69
2023/07/25 22:35:07;;;;;;;5.63;5.00;;;;;;;;;;2614076;39;21073;-69
2023/07/25 22:40:38;;;;;;;11.20;6.93;;;;;;;;;;2614376;54;21014;-68
2023/07/25 22:46:07;;;;;;;5.97;5.40;;;;;;;;;;2614747;46;20507;-69
2023/07/25 22:51:37;;;;;;;6.87;6.27;;;;;;;;;;2614872;46;20390;-68
2023/07/25 22:57:07;;;;;;;6.00;5.50;;;;;;;;;;2614845;39;20752;-69
2023/07/25 23:02:36;;;;;;;5.63;5.13;;;;;;;;;;2614442;54;20412;-68
2023/07/25 23:08:06;;;;;;;5.80;5.30;;;;;;;;;;2613999;54;20464;-69
2023/07/25 23:13:36;;;;;;;6.10;5.60;;;;;;;;;;2614684;54;20403;-68
2023/07/25 23:19:05;;;;;;;5.70;5.30;;;;;;;;;;2614306;39;20831;-69
2023/07/25 23:24:35;;;;;;;5.30;4.90;;;;;;;;;;2614778;54;20940;-69
2023/07/25 23:30:06;;;;;;;5.77;5.27;;;;;;;;;;2613985;39;20804;-68
2023/07/25 23:35:38;;;;;;;5.93;5.13;;;;;;;;;;2612948;54;20416;-67
2023/07/25 23:41:10;;;;;;;8.30;6.27;;;;;;;;;;2612850;54;20411;-68
2023/07/25 23:50:17;;;;;;;6.50;5.97;;;;;;;;;;2613226;54;20415;-69
2023/07/25 23:55:47;;;;;;;6.73;6.07;;;;;;;;;;2614078;54;20416;-69
